sensor_id;sensor_type;location;lat;lon;timestamp;pressure;altitude;pressure_sealevel;temperature;humidity
967;BME280;56108;48.730;9.304;2023-06-04T00:01:42;97499.84;;;14.74;68.97
967;BME280;56108;48.730;9.304;2023-06-04T00:03:51;97492.06;;;14.71;69.26
967;BME280;56108;48.730;9.304;2023-06-04T00:05:59;97496.00;;;14.67;69.50
967;BME280;56108;48.730;9.304;2023-06-04T00:08:10;97505.19;;;14.74;68.32
967;BME280;56108;48.730;9.304;2023-06-04T00:10:18;97496.41;;;14.62;69.57
967;BME280;56108;48.730;9.304;2023-06-04T00:12:26;97487.66;;;14.60;69.16
967;BME280;56108;48.730;9.304;2023-06-04T00:14:34;97491.84;;;14.53;70.39
967;BME280;56108;48.730;9.304;2023-06-04T00:16:42;97491.53;;;14.46;71.06
967;BME280;56108;48.730;9.304;2023-06-04T00:18:50;97491.78;;;14.43;70.65
967;BME280;56108;48.730;9.304;2023-06-04T00:20:58;97482.84;;;14.33;71.67
967;BME280;56108;48.730;9.304;2023-06-04T00:23:06;97486.06;;;14.27;73.41
967;BME280;56108;48.730;9.304;2023-06-04T00:25:17;97481.47;;;14.18;75.40
967;BME280;56108;48.730;9.304;2023-06-04T00:27:24;97480.56;;;14.07;75.72
967;BME280;56108;48.730;9.304;2023-06-04T00:29:32;97482.78;;;14.02;77.28
967;BME280;56108;48.730;9.304;2023-06-04T00:31:40;97489.53;;;13.97;77.47
967;BME280;56108;48.730;9.304;2023-06-04T00:33:48;97487.75;;;13.86;78.02
967;BME280;56108;48.730;9.304;2023-06-04T00:35:56;97483.91;;;13.79;78.04
967;BME280;56108;48.730;9.304;2023-06-04T00:38:04;97488.88;;;13.83;80.44
967;BME280;56108;48.730;9.304;2023-06-04T00:40:12;97493.75;;;13.78;81.23
967;BME280;56108;48.730;9.304;2023-06-04T00:42:23;97493.88;;;13.77;81.14
967;BME280;56108;48.730;9.304;2023-06-04T00:44:31;97495.22;;;13.71;83.89
967;BME280;56108;48.730;9.304;2023-06-04T00:46:39;97490.53;;;13.64;85.09
967;BME280;56108;48.730;9.304;2023-06-04T00:48:50;97497.63;;;13.53;84.70
967;BME280;56108;48.730;9.304;2023-06-04T00:50:59;97499.56;;;13.51;86.44
967;BME280;56108;48.730;9.304;2023-06-04T00:53:08;97497.97;;;13.60;87.87
967;BME280;56108;48.730;9.304;2023-06-04T00:55:17;97501.00;;;13.55;87.03
967;BME280;56108;48.730;9.304;2023-06-04T00:57:28;97502.00;;;13.54;84.71
967;BME280;56108;48.730;9.304;2023-06-04T00:59:38;97497.72;;;13.63;85.51
967;BME280;56108;48.730;9.304;2023-06-04T01:01:51;97498.81;;;13.61;85.11
967;BME280;56108;48.730;9.304;2023-06-04T01:04:02;97504.66;;;13.54;86.62
967;BME280;56108;48.730;9.304;2023-06-04T01:06:15;97506.03;;;13.49;85.14
967;BME280;56108;48.730;9.304;2023-06-04T01:08:27;97505.94;;;13.39;84.95
967;BME280;56108;48.730;9.304;2023-06-04T01:10:35;97509.72;;;13.37;87.37
967;BME280;56108;48.730;9.304;2023-06-04T01:12:46;97514.13;;;13.26;86.36
967;BME280;56108;48.730;9.304;2023-06-04T01:14:54;97513.50;;;13.23;87.14
967;BME280;56108;48.730;9.304;2023-06-04T01:17:06;97510.00;;;13.22;88.32
967;BME280;56108;48.730;9.304;2023-06-04T01:19:30;97509.50;;;13.17;89.83
967;BME280;56108;48.730;9.304;2023-06-04T01:21:42;97511.31;;;13.17;90.93
967;BME280;56108;48.730;9.304;2023-06-04T01:23:51;97513.50;;;13.12;92.51
967;BME280;56108;48.730;9.304;2023-06-04T01:26:04;97515.06;;;13.25;93.24
967;BME280;56108;48.730;9.304;2023-06-04T01:28:16;97505.22;;;13.15;91.56
967;BME280;56108;48.730;9.304;2023-06-04T01:30:28;97502.34;;;13.06;90.29
967;BME280;56108;48.730;9.304;2023-06-04T01:32:37;97502.34;;;13.06;87.94
967;BME280;56108;48.730;9.304;2023-06-04T01:34:45;97505.16;;;13.05;86.42
967;BME280;56108;48.730;9.304;2023-06-04T01:36:53;97507.59;;;12.97;83.83
967;BME280;56108;48.730;9.304;2023-06-04T01:39:02;97506.47;;;12.99;80.60
967;BME280;56108;48.730;9.304;2023-06-04T01:41:10;97514.47;;;12.99;80.14
967;BME280;56108;48.730;9.304;2023-06-04T01:43:20;97505.13;;;12.94;81.06
967;BME280;56108;48.730;9.304;2023-06-04T01:45:29;97497.97;;;12.94;80.91
967;BME280;56108;48.730;9.304;2023-06-04T01:47:37;97505.50;;;12.89;81.11
967;BME280;56108;48.730;9.304;2023-06-04T01:49:45;97507.59;;;12.86;83.79
967;BME280;56108;48.730;9.304;2023-06-04T01:51:53;97505.78;;;12.75;84.74
967;BME280;56108;48.730;9.304;2023-06-04T01:54:01;97506.38;;;12.67;86.95
967;BME280;56108;48.730;9.304;2023-06-04T01:56:09;97508.19;;;12.78;87.62
967;BME280;56108;48.730;9.304;2023-06-04T01:58:20;97505.66;;;12.65;86.79
967;BME280;56108;48.730;9.304;2023-06-04T02:00:32;97504.47;;;12.58;88.39
967;BME280;56108;48.730;9.304;2023-06-04T02:02:43;97505.53;;;12.56;89.56
967;BME280;56108;48.730;9.304;2023-06-04T02:04:54;97503.22;;;12.51;92.04
967;BME280;56108;48.730;9.304;2023-06-04T02:07:02;97504.19;;;12.72;92.18
967;BME280;56108;48.730;9.304;2023-06-04T02:09:11;97496.06;;;12.63;92.70
967;BME280;56108;48.730;9.304;2023-06-04T02:11:19;97499.56;;;12.63;93.42
967;BME280;56108;48.730;9.304;2023-06-04T02:13:30;97494.84;;;12.67;91.88
967;BME280;56108;48.730;9.304;2023-06-04T02:15:38;97494.63;;;12.59;90.64
967;BME280;56108;48.730;9.304;2023-06-04T02:17:46;97502.50;;;12.49;84.88
967;BME280;56108;48.730;9.304;2023-06-04T02:19:55;97507.50;;;12.53;77.87
967;BME280;56108;48.730;9.304;2023-06-04T02:22:03;97501.03;;;12.56;78.60
967;BME280;56108;48.730;9.304;2023-06-04T02:24:12;97499.22;;;12.45;80.28
967;BME280;56108;48.730;9.304;2023-06-04T02:26:20;97501.28;;;12.42;80.51
967;BME280;56108;48.730;9.304;2023-06-04T02:28:32;97502.38;;;12.39;82.93
967;BME280;56108;48.730;9.304;2023-06-04T02:30:41;97504.44;;;12.36;85.32
967;BME280;56108;48.730;9.304;2023-06-04T02:32:49;97500.06;;;12.35;84.90
967;BME280;56108;48.730;9.304;2023-06-04T02:35:00;97504.06;;;12.29;85.80
967;BME280;56108;48.730;9.304;2023-06-04T02:37:08;97512.66;;;12.21;86.68
967;BME280;56108;48.730;9.304;2023-06-04T02:39:15;97513.75;;;12.19;88.29
967;BME280;56108;48.730;9.304;2023-06-04T02:41:24;97505.97;;;12.16;87.78
967;BME280;56108;48.730;9.304;2023-06-04T02:43:34;97501.03;;;12.22;89.59
967;BME280;56108;48.730;9.304;2023-06-04T02:45:42;97501.75;;;12.24;89.95
967;BME280;56108;48.730;9.304;2023-06-04T02:47:50;97501.88;;;12.34;90.56
967;BME280;56108;48.730;9.304;2023-06-04T02:49:58;97505.03;;;12.28;89.33
967;BME280;56108;48.730;9.304;2023-06-04T02:52:08;97507.78;;;12.15;89.17
967;BME280;56108;48.730;9.304;2023-06-04T02:54:16;97512.28;;;12.15;90.42
967;BME280;56108;48.730;9.304;2023-06-04T02:56:24;97508.13;;;12.11;92.23
967;BME280;56108;48.730;9.304;2023-06-04T02:58:35;97499.16;;;12.00;93.19
967;BME280;56108;48.730;9.304;2023-06-04T03:00:45;97500.47;;;11.95;92.71
967;BME280;56108;48.730;9.304;2023-06-04T03:02:53;97504.72;;;11.97;91.98
967;BME280;56108;48.730;9.304;2023-06-04T03:05:09;97506.94;;;12.04;92.66
967;BME280;56108;48.730;9.304;2023-06-04T03:07:19;97515.41;;;11.97;93.24
967;BME280;56108;48.730;9.304;2023-06-04T03:09:27;97522.69;;;11.95;94.15
967;BME280;56108;48.730;9.304;2023-06-04T03:11:35;97516.97;;;12.00;93.83
967;BME280;56108;48.730;9.304;2023-06-04T03:13:49;97510.91;;;11.98;93.29
967;BME280;56108;48.730;9.304;2023-06-04T03:15:58;97518.28;;;11.94;93.46
967;BME280;56108;48.730;9.304;2023-06-04T03:18:07;97515.63;;;11.94;94.58
967;BME280;56108;48.730;9.304;2023-06-04T03:20:16;97514.91;;;11.92;93.42
967;BME280;56108;48.730;9.304;2023-06-04T03:22:24;97517.19;;;11.86;92.25
967;BME280;56108;48.730;9.304;2023-06-04T03:24:42;97522.63;;;11.84;94.11
967;BME280;56108;48.730;9.304;2023-06-04T03:27:04;97525.28;;;11.84;92.05
967;BME280;56108;48.730;9.304;2023-06-04T03:29:15;97531.72;;;11.82;92.68
967;BME280;56108;48.730;9.304;2023-06-04T03:31:23;97540.88;;;11.77;92.53
967;BME280;56108;48.730;9.304;2023-06-04T03:33:31;97537.34;;;11.77;93.09
967;BME280;56108;48.730;9.304;2023-06-04T03:35:40;97542.63;;;11.90;93.67
967;BME280;56108;48.730;9.304;2023-06-04T03:37:48;97540.25;;;11.98;92.27
967;BME280;56108;48.730;9.304;2023-06-04T03:39:56;97536.75;;;11.97;91.30
967;BME280;56108;48.730;9.304;2023-06-04T03:42:05;97542.78;;;11.99;91.73
967;BME280;56108;48.730;9.304;2023-06-04T03:44:16;97532.38;;;11.96;91.43
967;BME280;56108;48.730;9.304;2023-06-04T03:46:25;97535.69;;;12.11;91.14
967;BME280;56108;48.730;9.304;2023-06-04T03:48:37;97536.28;;;12.15;90.39
967;BME280;56108;48.730;9.304;2023-06-04T03:50:45;97535.72;;;12.22;91.19
967;BME280;56108;48.730;9.304;2023-06-04T03:52:54;97536.66;;;12.21;89.00
967;BME280;56108;48.730;9.304;2023-06-04T03:55:03;97534.28;;;12.41;88.73
967;BME280;56108;48.730;9.304;2023-06-04T03:57:13;97542.16;;;12.42;86.30
967;BME280;56108;48.730;9.304;2023-06-04T03:59:23;97539.88;;;12.49;85.91
967;BME280;56108;48.730;9.304;2023-06-04T04:01:31;97543.75;;;12.56;85.61
967;BME280;56108;48.730;9.304;2023-06-04T04:03:40;97544.59;;;12.68;83.19
967;BME280;56108;48.730;9.304;2023-06-04T04:05:48;97547.16;;;12.92;82.60
967;BME280;56108;48.730;9.304;2023-06-04T04:07:56;97549.03;;;13.46;80.12
967;BME280;56108;48.730;9.304;2023-06-04T04:10:08;97545.84;;;14.37;76.60
967;BME280;56108;48.730;9.304;2023-06-04T04:12:16;97563.66;;;15.39;69.74
967;BME280;56108;48.730;9.304;2023-06-04T04:14:27;97575.44;;;16.55;63.89
967;BME280;56108;48.730;9.304;2023-06-04T04:16:35;97579.47;;;17.35;60.84
967;BME280;56108;48.730;9.304;2023-06-04T04:18:43;97589.66;;;17.59;56.94
967;BME280;56108;48.730;9.304;2023-06-04T04:20:51;97596.06;;;18.03;55.70
967;BME280;56108;48.730;9.304;2023-06-04T04:23:00;97599.91;;;18.36;54.97
967;BME280;56108;48.730;9.304;2023-06-04T04:25:09;97604.34;;;18.63;53.55
967;BME280;56108;48.730;9.304;2023-06-04T04:27:17;97614.50;;;19.47;51.44
967;BME280;56108;48.730;9.304;2023-06-04T04:29:27;97629.75;;;20.07;48.43
967;BME280;56108;48.730;9.304;2023-06-04T04:31:39;97636.97;;;20.57;46.92
967;BME280;56108;48.730;9.304;2023-06-04T04:33:47;97635.00;;;21.39;45.79
967;BME280;56108;48.730;9.304;2023-06-04T04:35:57;97643.41;;;22.00;43.87
967;BME280;56108;48.730;9.304;2023-06-04T04:38:06;97646.88;;;22.48;42.99
967;BME280;56108;48.730;9.304;2023-06-04T04:40:24;97657.41;;;23.11;41.00
967;BME280;56108;48.730;9.304;2023-06-04T04:42:34;97660.09;;;23.49;40.17
967;BME280;56108;48.730;9.304;2023-06-04T04:44:46;97658.41;;;23.63;39.73
967;BME280;56108;48.730;9.304;2023-06-04T04:46:58;97667.94;;;24.03;38.69
967;BME280;56108;48.730;9.304;2023-06-04T04:49:06;97677.13;;;24.53;37.58
967;BME280;56108;48.730;9.304;2023-06-04T04:51:16;97672.84;;;23.93;37.97
967;BME280;56108;48.730;9.304;2023-06-04T04:53:25;97672.88;;;23.26;38.09
967;BME280;56108;48.730;9.304;2023-06-04T04:55:34;97656.25;;;22.14;40.71
967;BME280;56108;48.730;9.304;2023-06-04T04:57:42;97655.13;;;21.28;43.08
967;BME280;56108;48.730;9.304;2023-06-04T04:59:52;97653.38;;;19.97;44.98
967;BME280;56108;48.730;9.304;2023-06-04T05:02:01;97639.63;;;19.14;48.75
967;BME280;56108;48.730;9.304;2023-06-04T05:04:09;97633.94;;;18.73;49.47
967;BME280;56108;48.730;9.304;2023-06-04T05:06:18;97628.63;;;19.07;49.50
967;BME280;56108;48.730;9.304;2023-06-04T05:08:27;97647.03;;;19.46;47.54
967;BME280;56108;48.730;9.304;2023-06-04T05:10:35;97646.88;;;19.13;47.82
967;BME280;56108;48.730;9.304;2023-06-04T05:12:51;97650.88;;;19.09;49.24
967;BME280;56108;48.730;9.304;2023-06-04T05:15:06;97653.84;;;21.00;45.67
967;BME280;56108;48.730;9.304;2023-06-04T05:17:18;97671.72;;;22.82;40.58
967;BME280;56108;48.730;9.304;2023-06-04T05:19:40;97687.31;;;24.30;37.72
967;BME280;56108;48.730;9.304;2023-06-04T05:21:49;97691.97;;;25.36;35.38
967;BME280;56108;48.730;9.304;2023-06-04T05:23:57;97696.69;;;26.12;34.14
967;BME280;56108;48.730;9.304;2023-06-04T05:26:09;97695.81;;;26.52;33.34
967;BME280;56108;48.730;9.304;2023-06-04T05:30:32;97701.22;;;27.20;32.04
967;BME280;56108;48.730;9.304;2023-06-04T05:32:40;97709.59;;;27.85;32.07
967;BME280;56108;48.730;9.304;2023-06-04T05:34:51;97698.88;;;27.50;32.30
967;BME280;56108;48.730;9.304;2023-06-04T05:37:03;97717.13;;;27.96;30.25
967;BME280;56108;48.730;9.304;2023-06-04T05:39:16;97727.16;;;28.80;29.31
967;BME280;56108;48.730;9.304;2023-06-04T05:41:34;97727.72;;;29.27;28.75
967;BME280;56108;48.730;9.304;2023-06-04T05:43:43;97725.19;;;29.26;29.15
967;BME280;56108;48.730;9.304;2023-06-04T05:45:56;97727.66;;;29.09;28.39
967;BME280;56108;48.730;9.304;2023-06-04T05:48:05;97726.28;;;29.25;28.67
967;BME280;56108;48.730;9.304;2023-06-04T05:50:13;97721.19;;;27.54;30.30
967;BME280;56108;48.730;9.304;2023-06-04T05:52:21;97727.63;;;28.71;27.63
967;BME280;56108;48.730;9.304;2023-06-04T05:54:32;97727.16;;;28.80;28.55
967;BME280;56108;48.730;9.304;2023-06-04T05:56:43;97723.69;;;28.92;29.08
967;BME280;56108;48.730;9.304;2023-06-04T05:58:51;97728.78;;;30.75;25.18
967;BME280;56108;48.730;9.304;2023-06-04T06:01:04;97730.81;;;29.87;27.09
967;BME280;56108;48.730;9.304;2023-06-04T06:03:13;97727.13;;;29.50;27.68
967;BME280;56108;48.730;9.304;2023-06-04T06:05:24;97734.88;;;30.03;26.43
967;BME280;56108;48.730;9.304;2023-06-04T06:07:32;97733.75;;;29.68;27.17
967;BME280;56108;48.730;9.304;2023-06-04T06:09:40;97726.13;;;26.29;29.52
967;BME280;56108;48.730;9.304;2023-06-04T06:11:48;97712.28;;;25.62;33.38
967;BME280;56108;48.730;9.304;2023-06-04T06:13:57;97719.94;;;27.37;30.90
967;BME280;56108;48.730;9.304;2023-06-04T06:16:07;97726.13;;;28.75;28.48
967;BME280;56108;48.730;9.304;2023-06-04T06:18:16;97735.03;;;29.33;27.04
967;BME280;56108;48.730;9.304;2023-06-04T06:20:24;97733.44;;;28.94;27.65
967;BME280;56108;48.730;9.304;2023-06-04T06:22:34;97733.56;;;28.68;27.96
967;BME280;56108;48.730;9.304;2023-06-04T06:24:46;97732.31;;;30.27;26.17
967;BME280;56108;48.730;9.304;2023-06-04T06:26:55;97675.38;;;30.52;25.60
967;BME280;56108;48.730;9.304;2023-06-04T06:29:03;97679.19;;;29.96;25.42
967;BME280;56108;48.730;9.304;2023-06-04T06:31:15;97679.66;;;30.11;25.20
967;BME280;56108;48.730;9.304;2023-06-04T06:33:23;97680.03;;;28.20;27.36
967;BME280;56108;48.730;9.304;2023-06-04T06:35:31;97673.25;;;27.38;28.75
967;BME280;56108;48.730;9.304;2023-06-04T06:37:39;97668.97;;;26.15;29.77
967;BME280;56108;48.730;9.304;2023-06-04T06:39:48;97681.19;;;26.87;29.27
967;BME280;56108;48.730;9.304;2023-06-04T06:41:56;97685.69;;;28.77;26.62
967;BME280;56108;48.730;9.304;2023-06-04T06:44:10;97675.22;;;28.16;28.88
967;BME280;56108;48.730;9.304;2023-06-04T06:46:21;97680.38;;;27.79;28.31
967;BME280;56108;48.730;9.304;2023-06-04T06:48:28;97690.00;;;28.91;27.42
967;BME280;56108;48.730;9.304;2023-06-04T06:50:36;97695.06;;;29.94;25.14
967;BME280;56108;48.730;9.304;2023-06-04T06:52:44;97696.13;;;30.11;24.67
967;BME280;56108;48.730;9.304;2023-06-04T06:54:52;97696.09;;;28.93;26.75
967;BME280;56108;48.730;9.304;2023-06-04T06:57:00;97699.28;;;29.22;26.75
967;BME280;56108;48.730;9.304;2023-06-04T06:59:13;97685.19;;;28.48;27.22
967;BME280;56108;48.730;9.304;2023-06-04T07:01:24;97688.78;;;29.19;26.52
967;BME280;56108;48.730;9.304;2023-06-04T07:03:32;97677.16;;;26.76;28.69
967;BME280;56108;48.730;9.304;2023-06-04T07:05:40;97674.84;;;27.99;29.16
967;BME280;56108;48.730;9.304;2023-06-04T07:07:48;97677.78;;;27.97;29.15
967;BME280;56108;48.730;9.304;2023-06-04T07:09:57;97685.38;;;29.73;27.62
967;BME280;56108;48.730;9.304;2023-06-04T07:12:05;97683.16;;;30.55;25.59
967;BME280;56108;48.730;9.304;2023-06-04T07:14:14;97687.91;;;31.08;24.50
967;BME280;56108;48.730;9.304;2023-06-04T07:16:24;97691.25;;;28.95;26.60
967;BME280;56108;48.730;9.304;2023-06-04T07:18:32;97683.91;;;26.93;29.18
967;BME280;56108;48.730;9.304;2023-06-04T07:20:40;97682.50;;;28.42;27.02
967;BME280;56108;48.730;9.304;2023-06-04T07:22:48;97681.44;;;27.78;28.15
967;BME280;56108;48.730;9.304;2023-06-04T07:24:56;97678.91;;;30.41;25.83
967;BME280;56108;48.730;9.304;2023-06-04T07:27:10;97687.41;;;31.41;24.04
967;BME280;56108;48.730;9.304;2023-06-04T07:29:19;97677.69;;;30.00;26.40
967;BME280;56108;48.730;9.304;2023-06-04T07:31:29;97693.16;;;32.22;22.97
967;BME280;56108;48.730;9.304;2023-06-04T07:33:37;97693.75;;;33.05;22.71
967;BME280;56108;48.730;9.304;2023-06-04T07:35:48;97686.31;;;32.25;22.44
967;BME280;56108;48.730;9.304;2023-06-04T07:37:56;97693.44;;;33.52;23.03
967;BME280;56108;48.730;9.304;2023-06-04T07:40:05;97687.72;;;32.79;22.32
967;BME280;56108;48.730;9.304;2023-06-04T07:42:13;97691.63;;;33.57;22.65
967;BME280;56108;48.730;9.304;2023-06-04T07:44:21;97676.41;;;32.92;22.03
967;BME280;56108;48.730;9.304;2023-06-04T07:46:31;97674.66;;;29.65;25.83
967;BME280;56108;48.730;9.304;2023-06-04T07:48:40;97657.56;;;32.20;25.02
967;BME280;56108;48.730;9.304;2023-06-04T07:50:48;97667.00;;;33.22;24.43
967;BME280;56108;48.730;9.304;2023-06-04T07:52:56;97669.66;;;33.84;22.09
967;BME280;56108;48.730;9.304;2023-06-04T07:55:05;97666.16;;;33.05;22.53
967;BME280;56108;48.730;9.304;2023-06-04T07:57:13;97664.06;;;33.12;23.98
967;BME280;56108;48.730;9.304;2023-06-04T07:59:21;97657.78;;;33.84;22.26
967;BME280;56108;48.730;9.304;2023-06-04T08:01:32;97655.75;;;33.57;23.32
967;BME280;56108;48.730;9.304;2023-06-04T08:03:40;97655.25;;;32.41;23.88
967;BME280;56108;48.730;9.304;2023-06-04T08:05:48;97650.44;;;30.84;25.41
967;BME280;56108;48.730;9.304;2023-06-04T08:07:56;97654.16;;;32.54;23.70
967;BME280;56108;48.730;9.304;2023-06-04T08:10:06;97643.31;;;30.34;26.81
967;BME280;56108;48.730;9.304;2023-06-04T08:12:14;97648.78;;;31.48;25.93
967;BME280;56108;48.730;9.304;2023-06-04T08:14:22;97647.50;;;31.09;25.74
967;BME280;56108;48.730;9.304;2023-06-04T08:16:34;97649.47;;;30.11;27.57
967;BME280;56108;48.730;9.304;2023-06-04T08:18:42;97637.75;;;30.23;28.06
967;BME280;56108;48.730;9.304;2023-06-04T08:20:50;97637.91;;;27.56;30.53
967;BME280;56108;48.730;9.304;2023-06-04T08:22:58;97628.84;;;27.63;31.95
967;BME280;56108;48.730;9.304;2023-06-04T08:25:07;97637.38;;;30.19;28.36
967;BME280;56108;48.730;9.304;2023-06-04T08:27:16;97640.03;;;27.35;30.76
967;BME280;56108;48.730;9.304;2023-06-04T08:29:24;97627.84;;;27.37;31.64
967;BME280;56108;48.730;9.304;2023-06-04T08:31:34;97640.13;;;28.82;29.84
967;BME280;56108;48.730;9.304;2023-06-04T08:33:45;97635.91;;;28.03;30.90
967;BME280;56108;48.730;9.304;2023-06-04T08:35:53;97634.56;;;27.28;31.41
967;BME280;56108;48.730;9.304;2023-06-04T08:38:01;97639.66;;;25.82;33.29
967;BME280;56108;48.730;9.304;2023-06-04T08:40:11;97645.00;;;24.27;35.80
967;BME280;56108;48.730;9.304;2023-06-04T08:42:29;97636.78;;;24.20;35.29
967;BME280;56108;48.730;9.304;2023-06-04T08:44:38;97642.50;;;24.62;34.82
967;BME280;56108;48.730;9.304;2023-06-04T08:46:51;97635.91;;;23.69;37.09
967;BME280;56108;48.730;9.304;2023-06-04T08:49:00;97637.97;;;23.52;37.08
967;BME280;56108;48.730;9.304;2023-06-04T08:51:10;97636.31;;;24.17;35.55
967;BME280;56108;48.730;9.304;2023-06-04T08:53:20;97636.41;;;24.38;37.59
967;BME280;56108;48.730;9.304;2023-06-04T08:55:28;97637.31;;;24.31;37.84
967;BME280;56108;48.730;9.304;2023-06-04T08:57:36;97631.34;;;25.62;35.48
967;BME280;56108;48.730;9.304;2023-06-04T08:59:45;97632.94;;;24.94;35.31
967;BME280;56108;48.730;9.304;2023-06-04T09:01:56;97639.88;;;24.96;33.59
967;BME280;56108;48.730;9.304;2023-06-04T09:04:06;97645.00;;;24.85;35.13
967;BME280;56108;48.730;9.304;2023-06-04T09:06:17;97652.91;;;24.22;34.67
967;BME280;56108;48.730;9.304;2023-06-04T09:08:26;97643.97;;;24.07;35.37
967;BME280;56108;48.730;9.304;2023-06-04T09:10:36;97642.75;;;24.67;34.66
967;BME280;56108;48.730;9.304;2023-06-04T09:12:47;97643.94;;;25.29;32.87
967;BME280;56108;48.730;9.304;2023-06-04T09:14:56;97641.44;;;24.63;34.66
967;BME280;56108;48.730;9.304;2023-06-04T09:17:07;97643.94;;;25.29;33.33
967;BME280;56108;48.730;9.304;2023-06-04T09:19:15;97649.66;;;27.04;31.06
967;BME280;56108;48.730;9.304;2023-06-04T09:21:23;97648.41;;;26.93;32.31
967;BME280;56108;48.730;9.304;2023-06-04T09:23:34;97649.13;;;26.34;31.21
967;BME280;56108;48.730;9.304;2023-06-04T09:25:43;97643.56;;;27.75;30.52
967;BME280;56108;48.730;9.304;2023-06-04T09:27:51;97646.97;;;27.44;30.55
967;BME280;56108;48.730;9.304;2023-06-04T09:30:00;97648.78;;;25.96;31.04
967;BME280;56108;48.730;9.304;2023-06-04T09:32:12;97651.75;;;26.69;30.60
967;BME280;56108;48.730;9.304;2023-06-04T09:34:27;97653.03;;;28.30;29.92
967;BME280;56108;48.730;9.304;2023-06-04T09:36:37;97651.47;;;27.96;28.66
967;BME280;56108;48.730;9.304;2023-06-04T09:38:45;97654.66;;;27.93;29.12
967;BME280;56108;48.730;9.304;2023-06-04T09:40:55;97654.69;;;28.76;27.47
967;BME280;56108;48.730;9.304;2023-06-04T09:43:05;97651.09;;;28.44;27.52
967;BME280;56108;48.730;9.304;2023-06-04T09:45:13;97642.31;;;27.44;29.70
967;BME280;56108;48.730;9.304;2023-06-04T09:47:42;97638.13;;;27.35;30.09
967;BME280;56108;48.730;9.304;2023-06-04T09:49:50;97640.84;;;27.48;29.87
967;BME280;56108;48.730;9.304;2023-06-04T09:51:58;97645.25;;;27.49;29.09
967;BME280;56108;48.730;9.304;2023-06-04T09:54:06;97636.84;;;28.22;29.31
967;BME280;56108;48.730;9.304;2023-06-04T09:56:14;97642.16;;;29.87;27.12
967;BME280;56108;48.730;9.304;2023-06-04T09:58:24;97647.91;;;27.96;29.63
967;BME280;56108;48.730;9.304;2023-06-04T10:00:33;97636.84;;;26.58;31.92
967;BME280;56108;48.730;9.304;2023-06-04T10:02:44;97641.06;;;27.00;29.54
967;BME280;56108;48.730;9.304;2023-06-04T10:04:55;97637.63;;;25.91;31.06
967;BME280;56108;48.730;9.304;2023-06-04T10:07:04;97641.66;;;26.63;30.44
967;BME280;56108;48.730;9.304;2023-06-04T10:09:13;97639.38;;;25.36;31.80
967;BME280;56108;48.730;9.304;2023-06-04T10:11:26;97641.31;;;24.92;31.82
967;BME280;56108;48.730;9.304;2023-06-04T10:13:38;97639.38;;;26.05;31.83
967;BME280;56108;48.730;9.304;2023-06-04T10:15:49;97629.03;;;27.61;31.59
967;BME280;56108;48.730;9.304;2023-06-04T10:18:01;97628.97;;;26.35;29.72
967;BME280;56108;48.730;9.304;2023-06-04T10:20:10;97633.81;;;25.50;31.33
967;BME280;56108;48.730;9.304;2023-06-04T10:22:19;97638.19;;;25.17;33.08
967;BME280;56108;48.730;9.304;2023-06-04T10:24:27;97636.75;;;24.99;32.39
967;BME280;56108;48.730;9.304;2023-06-04T10:26:36;97629.53;;;25.69;32.30
967;BME280;56108;48.730;9.304;2023-06-04T10:28:44;97629.44;;;25.56;31.79
967;BME280;56108;48.730;9.304;2023-06-04T10:30:52;97622.34;;;26.97;33.35
967;BME280;56108;48.730;9.304;2023-06-04T10:33:03;97624.84;;;26.66;30.99
967;BME280;56108;48.730;9.304;2023-06-04T10:35:11;97625.16;;;26.29;30.91
967;BME280;56108;48.730;9.304;2023-06-04T10:37:21;97627.41;;;27.00;29.28
967;BME280;56108;48.730;9.304;2023-06-04T10:39:30;97620.06;;;26.00;30.66
967;BME280;56108;48.730;9.304;2023-06-04T10:41:38;97617.56;;;26.05;30.57
967;BME280;56108;48.730;9.304;2023-06-04T10:43:47;97616.44;;;25.23;32.09
967;BME280;56108;48.730;9.304;2023-06-04T10:45:57;97620.16;;;26.33;31.78
967;BME280;56108;48.730;9.304;2023-06-04T10:48:09;97621.41;;;25.76;31.59
967;BME280;56108;48.730;9.304;2023-06-04T10:50:17;97628.75;;;25.75;31.89
967;BME280;56108;48.730;9.304;2023-06-04T10:52:26;97618.69;;;25.83;32.41
967;BME280;56108;48.730;9.304;2023-06-04T10:54:34;97624.06;;;25.69;32.10
967;BME280;56108;48.730;9.304;2023-06-04T10:56:42;97620.84;;;26.55;30.75
967;BME280;56108;48.730;9.304;2023-06-04T10:58:50;97625.34;;;27.22;31.38
967;BME280;56108;48.730;9.304;2023-06-04T11:00:59;97614.63;;;26.07;30.88
967;BME280;56108;48.730;9.304;2023-06-04T11:03:10;97623.00;;;26.73;30.62
967;BME280;56108;48.730;9.304;2023-06-04T11:05:18;97615.09;;;26.23;31.24
967;BME280;56108;48.730;9.304;2023-06-04T11:07:27;97618.41;;;26.19;31.61
967;BME280;56108;48.730;9.304;2023-06-04T11:09:36;97633.47;;;24.61;33.53
967;BME280;56108;48.730;9.304;2023-06-04T11:11:44;97625.81;;;24.93;32.60
967;BME280;56108;48.730;9.304;2023-06-04T11:14:10;97621.72;;;25.04;33.04
967;BME280;56108;48.730;9.304;2023-06-04T11:16:20;97619.59;;;24.78;33.84
967;BME280;56108;48.730;9.304;2023-06-04T11:18:30;97615.31;;;24.68;34.21
967;BME280;56108;48.730;9.304;2023-06-04T11:20:38;97614.81;;;24.80;33.14
967;BME280;56108;48.730;9.304;2023-06-04T11:22:51;97620.25;;;24.58;33.14
967;BME280;56108;48.730;9.304;2023-06-04T11:25:02;97620.09;;;25.09;32.60
967;BME280;56108;48.730;9.304;2023-06-04T11:27:10;97616.22;;;24.97;31.23
967;BME280;56108;48.730;9.304;2023-06-04T11:29:32;97613.72;;;25.23;33.17
967;BME280;56108;48.730;9.304;2023-06-04T11:31:44;97602.53;;;25.46;32.55
967;BME280;56108;48.730;9.304;2023-06-04T11:33:55;97609.22;;;25.79;32.64
967;BME280;56108;48.730;9.304;2023-06-04T11:36:04;97615.38;;;25.94;31.84
967;BME280;56108;48.730;9.304;2023-06-04T11:38:12;97600.75;;;26.08;32.34
967;BME280;56108;48.730;9.304;2023-06-04T11:40:20;97620.41;;;25.21;31.84
967;BME280;56108;48.730;9.304;2023-06-04T11:42:29;97618.16;;;24.54;32.41
967;BME280;56108;48.730;9.304;2023-06-04T11:44:38;97614.19;;;24.20;32.28
967;BME280;56108;48.730;9.304;2023-06-04T11:46:50;97606.63;;;24.01;33.54
967;BME280;56108;48.730;9.304;2023-06-04T11:49:01;97612.63;;;24.32;34.43